Accueil
METAR-TAF:

METAR-TAF

Aéroports :

Aéroport d'Ambler

Ambler, Alaska, États-Unis

latitude: 67-06N, longitude: 157-51W, altitude: 88 m

Observation

Le bulletin a été fait il y a 45 minutes, à 21:56 UTC
Vent 5 kt de nord
Température -21°C
Humidité 84%
Pression 1008 hPa
Visibilité: 14.5 km
Ciel clair
neige faible

METAR: PAFM 222156Z AUTO 01005KT 9SM -SN CLR M21/M23 A2977 RMK AO2 SLP095 P0000 T12061228 FZRANO

Heure: 13:41 (22:41 UTC)


TAF: absent

Observations et prévisions météorologiques de plus de 4000 aéroports (messages METAR et TAF).

Les stations disponibles sont représentées par des disques jaunes et rouges sur la carte.

Passer la souris dessus pour voir le nom de la station.

Cliquer dessus pour voir les observations et prévisions météorologiques.

Pour changer de carte: cliquez sur les boutons verts avec une croix noire pour zoomer, sur le bouton vert avec un tiret pour effectuer un zoom arrière, ou sur les flèches vertes pour les cartes adjacentes.


METAR-TAF: